sensor_id;sensor_type;location;lat;lon;timestamp;temperature;humidity
21807;DHT22;11065;50.786;7.840;2022-09-09T00:04:36;17.60;55.70
21807;DHT22;11065;50.786;7.840;2022-09-09T00:09:45;17.60;55.40
21807;DHT22;11065;50.786;7.840;2022-09-09T00:12:15;17.60;55.70
21807;DHT22;11065;50.786;7.840;2022-09-09T00:14:55;17.60;55.30
21807;DHT22;11065;50.786;7.840;2022-09-09T00:17:35;17.70;55.70
21807;DHT22;11065;50.786;7.840;2022-09-09T00:20:12;17.70;56.10
21807;DHT22;11065;50.786;7.840;2022-09-09T00:22:48;17.70;56.00
21807;DHT22;11065;50.786;7.840;2022-09-09T00:25:29;17.70;55.70
21807;DHT22;11065;50.786;7.840;2022-09-09T00:28:00;17.70;56.00
21807;DHT22;11065;50.786;7.840;2022-09-09T00:30:31;17.70;55.40
21807;DHT22;11065;50.786;7.840;2022-09-09T00:33:08;17.70;55.80
21807;DHT22;11065;50.786;7.840;2022-09-09T00:35:44;17.70;55.70
21807;DHT22;11065;50.786;7.840;2022-09-09T00:38:18;17.70;55.70
21807;DHT22;11065;50.786;7.840;2022-09-09T00:40:52;17.70;56.10
21807;DHT22;11065;50.786;7.840;2022-09-09T00:43:46;17.70;55.90
21807;DHT22;11065;50.786;7.840;2022-09-09T00:46:41;17.70;56.70
21807;DHT22;11065;50.786;7.840;2022-09-09T00:55:14;17.70;56.40
21807;DHT22;11065;50.786;7.840;2022-09-09T00:57:42;17.80;56.00
21807;DHT22;11065;50.786;7.840;2022-09-09T01:00:22;17.80;56.10
21807;DHT22;11065;50.786;7.840;2022-09-09T01:02:53;17.80;56.80
21807;DHT22;11065;50.786;7.840;2022-09-09T01:07:54;17.80;56.10
21807;DHT22;11065;50.786;7.840;2022-09-09T01:10:46;17.80;55.70
21807;DHT22;11065;50.786;7.840;2022-09-09T01:13:25;17.70;56.30
21807;DHT22;11065;50.786;7.840;2022-09-09T01:15:53;17.70;56.10
21807;DHT22;11065;50.786;7.840;2022-09-09T01:18:35;17.70;56.00
21807;DHT22;11065;50.786;7.840;2022-09-09T01:21:15;17.70;56.30
21807;DHT22;11065;50.786;7.840;2022-09-09T01:27:05;17.70;57.00
21807;DHT22;11065;50.786;7.840;2022-09-09T01:29:33;17.70;56.30
21807;DHT22;11065;50.786;7.840;2022-09-09T01:32:02;17.70;56.40
21807;DHT22;11065;50.786;7.840;2022-09-09T01:34:35;17.70;56.50
21807;DHT22;11065;50.786;7.840;2022-09-09T01:37:06;17.70;56.70
21807;DHT22;11065;50.786;7.840;2022-09-09T01:39:37;17.70;56.50
21807;DHT22;11065;50.786;7.840;2022-09-09T01:42:10;17.70;56.60
21807;DHT22;11065;50.786;7.840;2022-09-09T01:44:39;17.70;56.60
21807;DHT22;11065;50.786;7.840;2022-09-09T01:47:07;17.70;56.70
21807;DHT22;11065;50.786;7.840;2022-09-09T01:49:40;17.80;56.70
21807;DHT22;11065;50.786;7.840;2022-09-09T01:52:17;17.80;56.70
21807;DHT22;11065;50.786;7.840;2022-09-09T01:54:44;17.80;56.70
21807;DHT22;11065;50.786;7.840;2022-09-09T01:57:25;17.80;56.70
21807;DHT22;11065;50.786;7.840;2022-09-09T02:00:14;17.90;57.30
21807;DHT22;11065;50.786;7.840;2022-09-09T02:02:56;17.90;57.50
21807;DHT22;11065;50.786;7.840;2022-09-09T02:05:38;17.90;57.30
21807;DHT22;11065;50.786;7.840;2022-09-09T02:11:16;18.00;57.50
21807;DHT22;11065;50.786;7.840;2022-09-09T02:14:16;18.00;57.40
21807;DHT22;11065;50.786;7.840;2022-09-09T02:16:51;18.00;57.20
21807;DHT22;11065;50.786;7.840;2022-09-09T02:19:25;18.00;57.00
21807;DHT22;11065;50.786;7.840;2022-09-09T02:22:06;18.10;57.60
21807;DHT22;11065;50.786;7.840;2022-09-09T02:24:35;18.10;56.90
21807;DHT22;11065;50.786;7.840;2022-09-09T02:27:13;18.10;57.10
21807;DHT22;11065;50.786;7.840;2022-09-09T02:29:42;18.10;57.00
21807;DHT22;11065;50.786;7.840;2022-09-09T02:32:15;18.20;57.10
21807;DHT22;11065;50.786;7.840;2022-09-09T02:34:46;18.20;57.40
21807;DHT22;11065;50.786;7.840;2022-09-09T02:37:17;18.20;57.20
21807;DHT22;11065;50.786;7.840;2022-09-09T02:39:49;18.20;57.10
21807;DHT22;11065;50.786;7.840;2022-09-09T02:42:19;18.30;57.10
21807;DHT22;11065;50.786;7.840;2022-09-09T02:44:46;18.30;57.10
21807;DHT22;11065;50.786;7.840;2022-09-09T02:50:29;18.30;57.20
21807;DHT22;11065;50.786;7.840;2022-09-09T02:53:10;18.30;57.60
21807;DHT22;11065;50.786;7.840;2022-09-09T02:55:54;18.40;57.40
21807;DHT22;11065;50.786;7.840;2022-09-09T02:58:23;18.40;57.20
21807;DHT22;11065;50.786;7.840;2022-09-09T03:00:56;18.40;57.20
21807;DHT22;11065;50.786;7.840;2022-09-09T03:03:25;18.40;57.10
21807;DHT22;11065;50.786;7.840;2022-09-09T03:05:52;18.40;57.00
21807;DHT22;11065;50.786;7.840;2022-09-09T03:08:19;18.40;57.00
21807;DHT22;11065;50.786;7.840;2022-09-09T03:10:46;18.40;57.00
21807;DHT22;11065;50.786;7.840;2022-09-09T03:13:14;18.40;57.00
21807;DHT22;11065;50.786;7.840;2022-09-09T03:15:42;18.50;57.10
21807;DHT22;11065;50.786;7.840;2022-09-09T03:18:14;18.50;57.00
21807;DHT22;11065;50.786;7.840;2022-09-09T03:20:41;18.50;57.00
21807;DHT22;11065;50.786;7.840;2022-09-09T03:23:09;18.50;57.00
21807;DHT22;11065;50.786;7.840;2022-09-09T03:25:51;18.50;57.00
21807;DHT22;11065;50.786;7.840;2022-09-09T03:28:25;18.60;57.20
21807;DHT22;11065;50.786;7.840;2022-09-09T03:31:00;18.60;56.90
21807;DHT22;11065;50.786;7.840;2022-09-09T03:33:30;18.60;56.90
21807;DHT22;11065;50.786;7.840;2022-09-09T03:35:57;18.60;56.90
21807;DHT22;11065;50.786;7.840;2022-09-09T03:38:24;18.60;57.00
21807;DHT22;11065;50.786;7.840;2022-09-09T03:40:53;18.60;57.10
21807;DHT22;11065;50.786;7.840;2022-09-09T03:43:23;18.60;56.90
21807;DHT22;11065;50.786;7.840;2022-09-09T03:45:51;18.60;56.90
21807;DHT22;11065;50.786;7.840;2022-09-09T03:48:19;18.70;56.90
21807;DHT22;11065;50.786;7.840;2022-09-09T03:50:51;18.70;56.90
21807;DHT22;11065;50.786;7.840;2022-09-09T03:53:20;18.70;56.90
21807;DHT22;11065;50.786;7.840;2022-09-09T03:55:49;18.70;56.90
21807;DHT22;11065;50.786;7.840;2022-09-09T03:58:16;18.70;57.30
21807;DHT22;11065;50.786;7.840;2022-09-09T04:01:13;18.70;56.80
21807;DHT22;11065;50.786;7.840;2022-09-09T04:03:42;18.80;57.20
21807;DHT22;11065;50.786;7.840;2022-09-09T04:06:10;18.80;56.80
21807;DHT22;11065;50.786;7.840;2022-09-09T04:08:41;18.80;56.90
21807;DHT22;11065;50.786;7.840;2022-09-09T04:11:08;18.80;56.80
21807;DHT22;11065;50.786;7.840;2022-09-09T04:13:37;18.80;56.80
21807;DHT22;11065;50.786;7.840;2022-09-09T04:16:09;18.80;56.80
21807;DHT22;11065;50.786;7.840;2022-09-09T04:18:37;18.80;56.80
21807;DHT22;11065;50.786;7.840;2022-09-09T04:21:04;18.90;56.70
21807;DHT22;11065;50.786;7.840;2022-09-09T04:23:34;18.90;56.80
21807;DHT22;11065;50.786;7.840;2022-09-09T04:26:02;18.80;56.80
21807;DHT22;11065;50.786;7.840;2022-09-09T04:28:33;18.80;56.90
21807;DHT22;11065;50.786;7.840;2022-09-09T04:31:09;18.80;57.00
21807;DHT22;11065;50.786;7.840;2022-09-09T04:33:39;18.80;57.20
21807;DHT22;11065;50.786;7.840;2022-09-09T04:36:08;18.80;57.00
21807;DHT22;11065;50.786;7.840;2022-09-09T04:38:35;18.80;57.00
21807;DHT22;11065;50.786;7.840;2022-09-09T04:41:03;18.80;57.00
21807;DHT22;11065;50.786;7.840;2022-09-09T04:43:31;18.90;57.00
21807;DHT22;11065;50.786;7.840;2022-09-09T04:46:00;18.90;57.00
21807;DHT22;11065;50.786;7.840;2022-09-09T04:48:27;18.90;57.00
21807;DHT22;11065;50.786;7.840;2022-09-09T04:50:58;18.90;57.00
21807;DHT22;11065;50.786;7.840;2022-09-09T04:53:26;18.80;57.00
21807;DHT22;11065;50.786;7.840;2022-09-09T04:56:08;18.90;57.10
21807;DHT22;11065;50.786;7.840;2022-09-09T04:58:41;18.90;57.20
21807;DHT22;11065;50.786;7.840;2022-09-09T05:01:18;18.90;57.00
21807;DHT22;11065;50.786;7.840;2022-09-09T05:03:47;19.00;57.10
21807;DHT22;11065;50.786;7.840;2022-09-09T05:06:21;19.00;57.00
21807;DHT22;11065;50.786;7.840;2022-09-09T05:08:52;19.00;57.00
21807;DHT22;11065;50.786;7.840;2022-09-09T05:11:25;19.00;57.00
21807;DHT22;11065;50.786;7.840;2022-09-09T05:13:58;19.00;57.10
21807;DHT22;11065;50.786;7.840;2022-09-09T05:16:27;19.00;57.10
21807;DHT22;11065;50.786;7.840;2022-09-09T05:18:54;18.90;57.00
21807;DHT22;11065;50.786;7.840;2022-09-09T05:21:23;18.90;57.10
21807;DHT22;11065;50.786;7.840;2022-09-09T05:23:50;18.90;57.10
21807;DHT22;11065;50.786;7.840;2022-09-09T05:26:20;18.90;57.00
21807;DHT22;11065;50.786;7.840;2022-09-09T05:28:49;18.90;57.20
21807;DHT22;11065;50.786;7.840;2022-09-09T05:31:18;18.90;57.20
21807;DHT22;11065;50.786;7.840;2022-09-09T05:33:48;18.90;57.30
21807;DHT22;11065;50.786;7.840;2022-09-09T05:36:18;18.90;57.30
21807;DHT22;11065;50.786;7.840;2022-09-09T05:38:48;18.90;57.50
21807;DHT22;11065;50.786;7.840;2022-09-09T05:41:17;18.90;57.40
21807;DHT22;11065;50.786;7.840;2022-09-09T05:43:45;18.90;57.30
21807;DHT22;11065;50.786;7.840;2022-09-09T05:46:19;19.00;57.50
21807;DHT22;11065;50.786;7.840;2022-09-09T05:48:49;19.00;57.80
21807;DHT22;11065;50.786;7.840;2022-09-09T05:51:21;19.00;57.70
21807;DHT22;11065;50.786;7.840;2022-09-09T05:53:49;19.10;57.70
21807;DHT22;11065;50.786;7.840;2022-09-09T05:56:23;19.10;57.50
21807;DHT22;11065;50.786;7.840;2022-09-09T05:58:52;19.20;57.40
21807;DHT22;11065;50.786;7.840;2022-09-09T06:01:24;19.20;57.20
21807;DHT22;11065;50.786;7.840;2022-09-09T06:03:51;19.30;57.50
21807;DHT22;11065;50.786;7.840;2022-09-09T06:06:24;19.30;56.80
21807;DHT22;11065;50.786;7.840;2022-09-09T06:08:56;19.30;56.70
21807;DHT22;11065;50.786;7.840;2022-09-09T06:11:32;19.30;56.60
21807;DHT22;11065;50.786;7.840;2022-09-09T06:14:00;19.30;56.60
21807;DHT22;11065;50.786;7.840;2022-09-09T06:16:30;19.30;56.50
21807;DHT22;11065;50.786;7.840;2022-09-09T06:18:59;19.40;56.60
21807;DHT22;11065;50.786;7.840;2022-09-09T06:21:33;19.40;56.80
21807;DHT22;11065;50.786;7.840;2022-09-09T06:24:01;19.50;56.80
21807;DHT22;11065;50.786;7.840;2022-09-09T06:26:33;19.50;56.60
21807;DHT22;11065;50.786;7.840;2022-09-09T06:29:02;19.60;56.50
21807;DHT22;11065;50.786;7.840;2022-09-09T06:31:32;19.60;56.50
21807;DHT22;11065;50.786;7.840;2022-09-09T06:34:08;19.70;56.50
21807;DHT22;11065;50.786;7.840;2022-09-09T06:36:39;19.80;56.30
21807;DHT22;11065;50.786;7.840;2022-09-09T06:39:07;19.80;56.30
21807;DHT22;11065;50.786;7.840;2022-09-09T06:41:41;19.80;56.00
21807;DHT22;11065;50.786;7.840;2022-09-09T06:44:27;19.80;56.30
21807;DHT22;11065;50.786;7.840;2022-09-09T06:47:00;20.00;56.50
21807;DHT22;11065;50.786;7.840;2022-09-09T06:49:27;20.00;56.50
21807;DHT22;11065;50.786;7.840;2022-09-09T06:51:54;20.10;56.60
21807;DHT22;11065;50.786;7.840;2022-09-09T06:54:21;20.20;56.30
21807;DHT22;11065;50.786;7.840;2022-09-09T06:56:50;20.30;56.10
21807;DHT22;11065;50.786;7.840;2022-09-09T06:59:22;20.40;56.00
21807;DHT22;11065;50.786;7.840;2022-09-09T07:01:51;20.50;56.00
21807;DHT22;11065;50.786;7.840;2022-09-09T07:04:22;20.60;55.80
21807;DHT22;11065;50.786;7.840;2022-09-09T07:06:49;20.60;55.30
21807;DHT22;11065;50.786;7.840;2022-09-09T07:09:20;20.60;55.20
21807;DHT22;11065;50.786;7.840;2022-09-09T07:11:50;20.60;55.00
21807;DHT22;11065;50.786;7.840;2022-09-09T07:14:20;20.70;55.10
21807;DHT22;11065;50.786;7.840;2022-09-09T07:16:55;20.60;54.80
21807;DHT22;11065;50.786;7.840;2022-09-09T07:19:26;20.60;54.40
21807;DHT22;11065;50.786;7.840;2022-09-09T07:21:54;20.60;54.30
21807;DHT22;11065;50.786;7.840;2022-09-09T07:24:23;20.60;54.40
21807;DHT22;11065;50.786;7.840;2022-09-09T07:26:51;20.50;54.10
21807;DHT22;11065;50.786;7.840;2022-09-09T07:29:18;20.50;54.10
21807;DHT22;11065;50.786;7.840;2022-09-09T07:31:47;20.50;54.00
21807;DHT22;11065;50.786;7.840;2022-09-09T07:34:20;20.50;54.10
21807;DHT22;11065;50.786;7.840;2022-09-09T07:36:47;20.50;54.40
21807;DHT22;11065;50.786;7.840;2022-09-09T07:39:17;20.50;54.40
21807;DHT22;11065;50.786;7.840;2022-09-09T07:41:49;20.50;54.30
21807;DHT22;11065;50.786;7.840;2022-09-09T07:44:21;20.50;54.20
21807;DHT22;11065;50.786;7.840;2022-09-09T07:47:02;20.50;54.00
21807;DHT22;11065;50.786;7.840;2022-09-09T07:49:35;20.60;53.00
21807;DHT22;11065;50.786;7.840;2022-09-09T07:52:04;20.60;53.30
21807;DHT22;11065;50.786;7.840;2022-09-09T07:54:31;20.70;53.60
21807;DHT22;11065;50.786;7.840;2022-09-09T07:57:00;20.80;53.30
21807;DHT22;11065;50.786;7.840;2022-09-09T07:59:29;20.90;53.50
21807;DHT22;11065;50.786;7.840;2022-09-09T08:01:57;20.90;53.60
21807;DHT22;11065;50.786;7.840;2022-09-09T08:04:27;21.00;53.40
21807;DHT22;11065;50.786;7.840;2022-09-09T08:06:57;21.10;53.30
21807;DHT22;11065;50.786;7.840;2022-09-09T08:09:27;21.10;53.00
21807;DHT22;11065;50.786;7.840;2022-09-09T08:12:05;21.20;53.10
21807;DHT22;11065;50.786;7.840;2022-09-09T08:14:34;21.30;53.00
21807;DHT22;11065;50.786;7.840;2022-09-09T08:17:02;21.30;52.90
21807;DHT22;11065;50.786;7.840;2022-09-09T08:19:31;21.30;52.90
21807;DHT22;11065;50.786;7.840;2022-09-09T08:22:01;21.40;52.90
21807;DHT22;11065;50.786;7.840;2022-09-09T08:24:30;21.50;52.70
21807;DHT22;11065;50.786;7.840;2022-09-09T08:26:57;21.60;52.80
21807;DHT22;11065;50.786;7.840;2022-09-09T08:29:24;21.70;52.70
21807;DHT22;11065;50.786;7.840;2022-09-09T08:31:54;21.80;51.60
21807;DHT22;11065;50.786;7.840;2022-09-09T08:34:26;22.00;52.40
21807;DHT22;11065;50.786;7.840;2022-09-09T08:36:55;22.40;54.10
21807;DHT22;11065;50.786;7.840;2022-09-09T08:39:29;23.10;56.20
21807;DHT22;11065;50.786;7.840;2022-09-09T08:50:57;27.90;54.40
21807;DHT22;11065;50.786;7.840;2022-09-09T08:53:27;29.30;52.70
21807;DHT22;11065;50.786;7.840;2022-09-09T08:56:09;30.70;50.20
21807;DHT22;11065;50.786;7.840;2022-09-09T08:58:49;31.60;46.20
21807;DHT22;11065;50.786;7.840;2022-09-09T09:04:29;32.20;43.30
21807;DHT22;11065;50.786;7.840;2022-09-09T09:12:23;32.00;41.60
21807;DHT22;11065;50.786;7.840;2022-09-09T09:14:52;32.30;42.80
21807;DHT22;11065;50.786;7.840;2022-09-09T09:17:20;32.60;42.70
21807;DHT22;11065;50.786;7.840;2022-09-09T09:19:48;32.80;41.30
21807;DHT22;11065;50.786;7.840;2022-09-09T09:22:19;32.90;41.00
21807;DHT22;11065;50.786;7.840;2022-09-09T09:24:55;32.80;39.20
21807;DHT22;11065;50.786;7.840;2022-09-09T09:27:34;32.50;38.40
21807;DHT22;11065;50.786;7.840;2022-09-09T09:30:14;32.20;39.20
21807;DHT22;11065;50.786;7.840;2022-09-09T09:33:05;32.00;38.60
21807;DHT22;11065;50.786;7.840;2022-09-09T09:35:32;31.90;38.30
21807;DHT22;11065;50.786;7.840;2022-09-09T09:38:24;31.90;38.90
21807;DHT22;11065;50.786;7.840;2022-09-09T09:41:11;32.00;38.90
21807;DHT22;11065;50.786;7.840;2022-09-09T09:43:40;32.20;40.10
21807;DHT22;11065;50.786;7.840;2022-09-09T09:46:20;32.50;39.10
21807;DHT22;11065;50.786;7.840;2022-09-09T09:49:04;32.80;37.40
21807;DHT22;11065;50.786;7.840;2022-09-09T09:51:34;33.00;34.40
21807;DHT22;11065;50.786;7.840;2022-09-09T09:56:42;33.00;37.40
21807;DHT22;11065;50.786;7.840;2022-09-09T10:02:20;33.00;35.40
21807;DHT22;11065;50.786;7.840;2022-09-09T10:05:18;32.70;35.80
21807;DHT22;11065;50.786;7.840;2022-09-09T10:08:24;32.70;36.40
21807;DHT22;11065;50.786;7.840;2022-09-09T10:11:18;32.80;36.80
21807;DHT22;11065;50.786;7.840;2022-09-09T10:14:04;33.00;36.90
21807;DHT22;11065;50.786;7.840;2022-09-09T10:16:56;33.20;35.90
21807;DHT22;11065;50.786;7.840;2022-09-09T10:19:33;33.50;36.00
21807;DHT22;11065;50.786;7.840;2022-09-09T10:22:23;33.80;36.10
21807;DHT22;11065;50.786;7.840;2022-09-09T10:30:59;34.10;33.60
21807;DHT22;11065;50.786;7.840;2022-09-09T10:33:51;33.80;33.30
21807;DHT22;11065;50.786;7.840;2022-09-09T10:36:25;33.30;33.10
21807;DHT22;11065;50.786;7.840;2022-09-09T10:39:04;32.70;32.80
21807;DHT22;11065;50.786;7.840;2022-09-09T10:53:14;30.50;34.30
21807;DHT22;11065;50.786;7.840;2022-09-09T10:55:45;30.50;33.20
21807;DHT22;11065;50.786;7.840;2022-09-09T10:58:25;30.50;35.40
21807;DHT22;11065;50.786;7.840;2022-09-09T11:01:01;30.60;34.90
21807;DHT22;11065;50.786;7.840;2022-09-09T11:03:31;30.50;34.10
21807;DHT22;11065;50.786;7.840;2022-09-09T11:06:11;30.50;34.90
21807;DHT22;11065;50.786;7.840;2022-09-09T11:08:39;30.50;35.00
21807;DHT22;11065;50.786;7.840;2022-09-09T11:11:20;30.60;34.40
21807;DHT22;11065;50.786;7.840;2022-09-09T11:16:40;30.70;35.10
21807;DHT22;11065;50.786;7.840;2022-09-09T11:19:31;30.80;34.80
21807;DHT22;11065;50.786;7.840;2022-09-09T11:22:13;31.20;35.40
21807;DHT22;11065;50.786;7.840;2022-09-09T11:24:53;31.70;35.90
21807;DHT22;11065;50.786;7.840;2022-09-09T11:27:31;32.30;35.70
21807;DHT22;11065;50.786;7.840;2022-09-09T11:30:18;32.70;35.30
21807;DHT22;11065;50.786;7.840;2022-09-09T11:39:25;32.80;33.10
21807;DHT22;11065;50.786;7.840;2022-09-09T11:42:18;32.80;33.10
21807;DHT22;11065;50.786;7.840;2022-09-09T11:44:45;32.90;33.10
21807;DHT22;11065;50.786;7.840;2022-09-09T11:47:24;33.00;33.70
21807;DHT22;11065;50.786;7.840;2022-09-09T11:52:38;33.30;32.10
21807;DHT22;11065;50.786;7.840;2022-09-09T11:55:28;33.50;33.20
21807;DHT22;11065;50.786;7.840;2022-09-09T11:58:01;33.70;32.00
21807;DHT22;11065;50.786;7.840;2022-09-09T12:00:48;33.90;32.70
21807;DHT22;11065;50.786;7.840;2022-09-09T12:03:42;34.10;30.30
21807;DHT22;11065;50.786;7.840;2022-09-09T12:06:31;34.10;30.20
21807;DHT22;11065;50.786;7.840;2022-09-09T12:17:20;33.00;31.00
21807;DHT22;11065;50.786;7.840;2022-09-09T12:22:37;33.00;31.80
21807;DHT22;11065;50.786;7.840;2022-09-09T12:28:11;33.50;31.20
21807;DHT22;11065;50.786;7.840;2022-09-09T12:30:50;33.60;31.10
21807;DHT22;11065;50.786;7.840;2022-09-09T12:33:20;33.50;29.90
21807;DHT22;11065;50.786;7.840;2022-09-09T12:35:55;33.50;30.90
21807;DHT22;11065;50.786;7.840;2022-09-09T12:38:38;33.40;30.70
21807;DHT22;11065;50.786;7.840;2022-09-09T12:41:06;33.30;30.70
21807;DHT22;11065;50.786;7.840;2022-09-09T12:43:33;33.20;30.40
21807;DHT22;11065;50.786;7.840;2022-09-09T12:46:08;33.10;30.60
21807;DHT22;11065;50.786;7.840;2022-09-09T12:48:39;32.90;30.20
21807;DHT22;11065;50.786;7.840;2022-09-09T12:51:21;32.70;30.30
21807;DHT22;11065;50.786;7.840;2022-09-09T12:53:52;32.50;30.40
21807;DHT22;11065;50.786;7.840;2022-09-09T12:56:21;32.30;30.40
21807;DHT22;11065;50.786;7.840;2022-09-09T12:58:50;32.10;30.40
21807;DHT22;11065;50.786;7.840;2022-09-09T13:01:32;32.10;31.00
21807;DHT22;11065;50.786;7.840;2022-09-09T13:04:02;32.20;30.80
21807;DHT22;11065;50.786;7.840;2022-09-09T13:06:31;32.30;30.80
21807;DHT22;11065;50.786;7.840;2022-09-09T13:09:00;32.40;30.90
21807;DHT22;11065;50.786;7.840;2022-09-09T13:11:37;32.50;30.70
21807;DHT22;11065;50.786;7.840;2022-09-09T13:14:06;32.50;30.50
21807;DHT22;11065;50.786;7.840;2022-09-09T13:16:34;32.50;30.20
21807;DHT22;11065;50.786;7.840;2022-09-09T13:19:13;32.50;30.40
21807;DHT22;11065;50.786;7.840;2022-09-09T13:21:41;32.50;30.70
21807;DHT22;11065;50.786;7.840;2022-09-09T13:27:00;32.70;29.80
21807;DHT22;11065;50.786;7.840;2022-09-09T13:29:31;32.80;30.30
21807;DHT22;11065;50.786;7.840;2022-09-09T13:32:06;32.80;30.10
21807;DHT22;11065;50.786;7.840;2022-09-09T13:34:39;32.80;29.80
21807;DHT22;11065;50.786;7.840;2022-09-09T13:37:13;32.60;29.60
21807;DHT22;11065;50.786;7.840;2022-09-09T13:39:51;32.30;29.30
21807;DHT22;11065;50.786;7.840;2022-09-09T13:42:31;32.00;29.30
21807;DHT22;11065;50.786;7.840;2022-09-09T13:44:59;31.60;29.30
21807;DHT22;11065;50.786;7.840;2022-09-09T13:47:36;31.20;29.50
21807;DHT22;11065;50.786;7.840;2022-09-09T13:50:24;30.90;29.60
21807;DHT22;11065;50.786;7.840;2022-09-09T13:52:56;30.50;29.80
21807;DHT22;11065;50.786;7.840;2022-09-09T13:55:29;30.10;29.80
21807;DHT22;11065;50.786;7.840;2022-09-09T13:58:00;29.90;30.00
21807;DHT22;11065;50.786;7.840;2022-09-09T14:00:32;29.70;30.20
21807;DHT22;11065;50.786;7.840;2022-09-09T14:02:59;29.50;30.40
21807;DHT22;11065;50.786;7.840;2022-09-09T14:05:33;29.40;30.80
21807;DHT22;11065;50.786;7.840;2022-09-09T14:08:00;29.30;31.40
21807;DHT22;11065;50.786;7.840;2022-09-09T14:10:27;29.20;31.00
21807;DHT22;11065;50.786;7.840;2022-09-09T14:12:54;29.10;31.20
21807;DHT22;11065;50.786;7.840;2022-09-09T14:15:21;29.00;31.30
21807;DHT22;11065;50.786;7.840;2022-09-09T14:17:48;28.90;31.20
21807;DHT22;11065;50.786;7.840;2022-09-09T14:20:15;28.80;31.10
21807;DHT22;11065;50.786;7.840;2022-09-09T14:22:44;28.70;31.10
21807;DHT22;11065;50.786;7.840;2022-09-09T14:25:10;28.50;31.10
21807;DHT22;11065;50.786;7.840;2022-09-09T14:27:40;28.30;31.10
21807;DHT22;11065;50.786;7.840;2022-09-09T14:30:08;28.20;31.50
21807;DHT22;11065;50.786;7.840;2022-09-09T14:32:35;27.90;31.80
21807;DHT22;11065;50.786;7.840;2022-09-09T14:35:02;27.70;32.20
21807;DHT22;11065;50.786;7.840;2022-09-09T14:37:29;27.40;32.90
21807;DHT22;11065;50.786;7.840;2022-09-09T14:39:57;27.10;33.20
21807;DHT22;11065;50.786;7.840;2022-09-09T14:42:24;26.80;34.00
21807;DHT22;11065;50.786;7.840;2022-09-09T14:44:52;26.50;33.90
21807;DHT22;11065;50.786;7.840;2022-09-09T14:47:19;26.20;34.40
21807;DHT22;11065;50.786;7.840;2022-09-09T14:49:46;26.00;34.80
21807;DHT22;11065;50.786;7.840;2022-09-09T14:52:15;25.80;34.90
21807;DHT22;11065;50.786;7.840;2022-09-09T14:54:43;25.60;35.40
21807;DHT22;11065;50.786;7.840;2022-09-09T14:57:09;25.40;35.70
21807;DHT22;11065;50.786;7.840;2022-09-09T14:59:36;25.30;36.30
21807;DHT22;11065;50.786;7.840;2022-09-09T15:02:03;25.10;37.50
21807;DHT22;11065;50.786;7.840;2022-09-09T15:04:31;25.00;37.30
21807;DHT22;11065;50.786;7.840;2022-09-09T15:06:58;24.80;37.60
21807;DHT22;11065;50.786;7.840;2022-09-09T15:09:25;24.60;37.90
21807;DHT22;11065;50.786;7.840;2022-09-09T15:11:52;24.40;38.00
21807;DHT22;11065;50.786;7.840;2022-09-09T15:14:19;24.20;38.00
21807;DHT22;11065;50.786;7.840;2022-09-09T15:16:51;24.20;38.50
21807;DHT22;11065;50.786;7.840;2022-09-09T15:19:17;24.20;39.50
21807;DHT22;11065;50.786;7.840;2022-09-09T15:21:44;24.40;40.20
21807;DHT22;11065;50.786;7.840;2022-09-09T15:24:11;24.60;40.00
21807;DHT22;11065;50.786;7.840;2022-09-09T15:26:40;24.70;40.50
21807;DHT22;11065;50.786;7.840;2022-09-09T15:29:07;24.90;40.10
21807;DHT22;11065;50.786;7.840;2022-09-09T15:31:35;25.00;39.80
21807;DHT22;11065;50.786;7.840;2022-09-09T15:34:04;25.10;39.50
21807;DHT22;11065;50.786;7.840;2022-09-09T15:36:32;25.10;39.40
21807;DHT22;11065;50.786;7.840;2022-09-09T15:39:00;25.10;39.50
21807;DHT22;11065;50.786;7.840;2022-09-09T15:41:27;25.00;39.60
21807;DHT22;11065;50.786;7.840;2022-09-09T15:43:56;25.00;39.70
21807;DHT22;11065;50.786;7.840;2022-09-09T15:46:44;25.00;39.80
21807;DHT22;11065;50.786;7.840;2022-09-09T15:49:12;24.90;40.50
21807;DHT22;11065;50.786;7.840;2022-09-09T15:51:44;24.80;39.90
21807;DHT22;11065;50.786;7.840;2022-09-09T15:54:14;24.70;40.30
21807;DHT22;11065;50.786;7.840;2022-09-09T15:56:41;24.70;40.30
21807;DHT22;11065;50.786;7.840;2022-09-09T15:59:08;24.60;41.00
21807;DHT22;11065;50.786;7.840;2022-09-09T16:01:35;24.50;40.40
21807;DHT22;11065;50.786;7.840;2022-09-09T16:04:03;24.40;40.20
21807;DHT22;11065;50.786;7.840;2022-09-09T16:06:30;24.30;40.50
21807;DHT22;11065;50.786;7.840;2022-09-09T16:08:58;24.20;40.50
21807;DHT22;11065;50.786;7.840;2022-09-09T16:11:29;24.10;40.60
21807;DHT22;11065;50.786;7.840;2022-09-09T16:13:57;24.00;40.90
21807;DHT22;11065;50.786;7.840;2022-09-09T16:16:27;23.90;40.90
21807;DHT22;11065;50.786;7.840;2022-09-09T16:19:05;23.80;41.20
21807;DHT22;11065;50.786;7.840;2022-09-09T16:21:35;23.80;42.30
21807;DHT22;11065;50.786;7.840;2022-09-09T16:24:04;23.70;41.70
21807;DHT22;11065;50.786;7.840;2022-09-09T16:26:33;23.70;41.70
21807;DHT22;11065;50.786;7.840;2022-09-09T16:29:01;23.70;42.00
21807;DHT22;11065;50.786;7.840;2022-09-09T16:31:30;23.70;42.00
21807;DHT22;11065;50.786;7.840;2022-09-09T16:33:58;23.60;42.00
21807;DHT22;11065;50.786;7.840;2022-09-09T16:36:27;23.50;41.90
21807;DHT22;11065;50.786;7.840;2022-09-09T16:38:58;23.50;41.90
21807;DHT22;11065;50.786;7.840;2022-09-09T16:41:27;23.40;42.00
21807;DHT22;11065;50.786;7.840;2022-09-09T16:44:05;23.30;41.90
21807;DHT22;11065;50.786;7.840;2022-09-09T16:46:38;23.20;42.00
21807;DHT22;11065;50.786;7.840;2022-09-09T16:49:08;23.10;42.20
21807;DHT22;11065;50.786;7.840;2022-09-09T16:51:41;22.90;42.40
21807;DHT22;11065;50.786;7.840;2022-09-09T16:54:09;22.80;42.80
21807;DHT22;11065;50.786;7.840;2022-09-09T16:56:39;22.70;42.40
21807;DHT22;11065;50.786;7.840;2022-09-09T16:59:18;22.60;42.80
21807;DHT22;11065;50.786;7.840;2022-09-09T17:01:47;22.50;43.10
21807;DHT22;11065;50.786;7.840;2022-09-09T17:04:16;22.50;43.00
21807;DHT22;11065;50.786;7.840;2022-09-09T17:06:48;22.40;43.20
21807;DHT22;11065;50.786;7.840;2022-09-09T17:09:16;22.40;43.40
21807;DHT22;11065;50.786;7.840;2022-09-09T17:11:44;22.40;43.30
21807;DHT22;11065;50.786;7.840;2022-09-09T17:14:15;22.30;43.90
21807;DHT22;11065;50.786;7.840;2022-09-09T17:16:43;22.30;43.60
21807;DHT22;11065;50.786;7.840;2022-09-09T17:19:10;22.30;43.70
21807;DHT22;11065;50.786;7.840;2022-09-09T17:21:37;22.20;43.70
21807;DHT22;11065;50.786;7.840;2022-09-09T17:24:28;22.10;44.10
21807;DHT22;11065;50.786;7.840;2022-09-09T17:26:56;22.10;43.70
21807;DHT22;11065;50.786;7.840;2022-09-09T17:29:25;22.00;43.80
21807;DHT22;11065;50.786;7.840;2022-09-09T17:31:52;21.90;43.90
21807;DHT22;11065;50.786;7.840;2022-09-09T17:34:19;21.80;44.00
21807;DHT22;11065;50.786;7.840;2022-09-09T17:36:46;21.80;44.10